createdAt,value
2018-08-31T00:00:31.766Z,6.57
2018-08-31T00:02:59.334Z,6.70
2018-08-31T00:05:38.190Z,7.00
2018-08-31T00:08:46.603Z,6.47
2018-08-31T00:11:36.536Z,6.90
2018-08-31T00:14:04.105Z,6.87
2018-08-31T00:16:31.732Z,6.73
2018-08-31T00:18:59.288Z,6.87
2018-08-31T00:21:26.787Z,6.83
2018-08-31T00:24:05.759Z,6.97
2018-08-31T00:26:44.675Z,6.50
2018-08-31T00:29:33.427Z,6.60
2018-08-31T00:34:24.411Z,6.70
2018-08-31T00:37:05.577Z,6.37
2018-08-31T00:43:49.168Z,6.53
2018-08-31T00:46:16.770Z,5.77
2018-08-31T00:48:44.272Z,6.53
2018-08-31T00:51:11.851Z,6.17
2018-08-31T00:53:39.317Z,6.57
2018-08-31T00:56:06.882Z,6.23
2018-08-31T00:58:34.434Z,6.67
2018-08-31T01:01:01.975Z,6.40
2018-08-31T01:03:29.491Z,6.43
2018-08-31T01:05:57.087Z,7.33
2018-08-31T01:08:24.636Z,7.70
2018-08-31T01:10:52.199Z,7.23
2018-08-31T01:13:19.793Z,6.60
2018-08-31T01:15:47.327Z,6.77
2018-08-31T01:18:14.975Z,7.00
2018-08-31T01:20:42.516Z,6.63
2018-08-31T01:23:10.190Z,7.17
2018-08-31T01:25:37.814Z,7.10
2018-08-31T01:28:05.325Z,7.47
2018-08-31T01:30:32.896Z,7.13
2018-08-31T01:33:00.482Z,6.97
2018-08-31T01:35:28.013Z,7.20
2018-08-31T01:37:55.584Z,7.10
2018-08-31T01:40:23.148Z,7.43
2018-08-31T01:42:50.687Z,7.77
2018-08-31T01:45:18.205Z,7.30
2018-08-31T01:47:45.782Z,7.60
2018-08-31T01:50:13.348Z,7.30
2018-08-31T01:52:40.900Z,7.33
2018-08-31T01:55:08.468Z,7.03
2018-08-31T01:57:36.210Z,6.77
2018-08-31T02:00:03.876Z,6.97
2018-08-31T02:02:31.394Z,7.10
2018-08-31T02:04:58.990Z,7.03
2018-08-31T02:07:26.549Z,7.67
2018-08-31T02:09:55.090Z,7.47
2018-08-31T02:12:22.609Z,7.20
2018-08-31T02:14:50.224Z,7.43
2018-08-31T02:17:17.710Z,7.27
2018-08-31T02:19:45.219Z,8.17
2018-08-31T02:22:12.788Z,8.70
2018-08-31T02:24:40.314Z,7.90
2018-08-31T02:27:07.836Z,8.77
2018-08-31T02:29:35.344Z,8.80
2018-08-31T02:32:02.859Z,9.73
2018-08-31T02:34:30.387Z,8.90
2018-08-31T02:36:57.898Z,9.33
2018-08-31T02:39:25.540Z,9.83
2018-08-31T02:41:52.998Z,9.23
2018-08-31T02:44:20.516Z,10.23
2018-08-31T02:46:48.074Z,9.63
2018-08-31T02:49:15.646Z,9.90
2018-08-31T02:51:43.158Z,10.10
2018-08-31T02:54:10.768Z,10.83
2018-08-31T02:56:38.336Z,10.13
2018-08-31T02:59:05.945Z,9.90
2018-08-31T03:01:33.520Z,9.93
2018-08-31T03:04:01.102Z,9.87
2018-08-31T03:06:28.638Z,9.57
2018-08-31T03:08:56.408Z,9.90
2018-08-31T03:11:24.037Z,9.10
2018-08-31T03:13:51.611Z,10.10
2018-08-31T03:16:19.154Z,9.47
2018-08-31T03:18:46.698Z,9.67
2018-08-31T03:21:14.362Z,9.47
2018-08-31T03:23:41.877Z,9.30
2018-08-31T03:26:09.399Z,9.13
2018-08-31T03:28:36.987Z,9.07
2018-08-31T03:31:04.567Z,8.57
2018-08-31T03:33:32.847Z,9.80
2018-08-31T03:36:00.385Z,9.60
2018-08-31T03:38:27.941Z,10.27
2018-08-31T03:40:55.482Z,9.30
2018-08-31T03:43:23.067Z,10.30
2018-08-31T03:45:50.639Z,10.20
2018-08-31T03:48:18.179Z,10.47
2018-08-31T03:50:45.702Z,10.80
2018-08-31T03:53:13.243Z,10.90
2018-08-31T03:55:40.950Z,11.57
2018-08-31T03:58:08.502Z,12.03
2018-08-31T04:00:36.009Z,12.47
2018-08-31T04:03:03.617Z,12.00
2018-08-31T04:05:31.183Z,12.67
2018-08-31T04:07:58.740Z,12.30
2018-08-31T04:10:26.360Z,12.10
2018-08-31T04:12:53.866Z,12.13
2018-08-31T04:15:21.442Z,11.70
2018-08-31T04:18:27.270Z,13.17
2018-08-31T04:20:54.682Z,12.10
2018-08-31T04:23:22.094Z,12.57
2018-08-31T04:25:49.483Z,12.43
2018-08-31T04:28:16.871Z,12.30
2018-08-31T04:30:44.322Z,11.87
2018-08-31T04:33:11.746Z,12.03
2018-08-31T04:35:39.192Z,11.50
2018-08-31T04:38:06.594Z,12.57
2018-08-31T04:40:34.094Z,12.87
2018-08-31T04:43:01.598Z,14.40
2018-08-31T04:45:28.974Z,13.47
2018-08-31T04:47:56.380Z,13.23
2018-08-31T04:50:23.874Z,12.57
2018-08-31T04:52:51.318Z,12.03
2018-08-31T04:55:18.764Z,14.23
2018-08-31T04:57:46.208Z,13.03
2018-08-31T05:00:13.639Z,11.87
2018-08-31T05:02:41.060Z,12.20
2018-08-31T05:05:08.490Z,11.87
2018-08-31T05:07:35.962Z,12.33
2018-08-31T05:10:03.479Z,11.77
2018-08-31T05:12:30.928Z,11.87
2018-08-31T05:14:58.323Z,12.10
2018-08-31T05:17:25.763Z,12.23
2018-08-31T05:19:53.171Z,11.67
2018-08-31T05:22:20.643Z,11.63
2018-08-31T05:24:48.081Z,11.03
2018-08-31T05:27:15.546Z,12.03
2018-08-31T05:29:43.006Z,11.60
2018-08-31T05:32:10.432Z,11.27
2018-08-31T05:34:37.851Z,11.03
2018-08-31T05:37:05.265Z,10.90
2018-08-31T05:39:32.718Z,11.20
2018-08-31T05:42:00.120Z,12.20
2018-08-31T05:44:27.542Z,11.00
2018-08-31T05:46:54.946Z,11.00
2018-08-31T05:49:22.386Z,11.63
2018-08-31T05:51:49.844Z,10.93
2018-08-31T05:54:17.274Z,10.83
2018-08-31T05:56:44.719Z,11.40
2018-08-31T05:59:12.164Z,10.80
2018-08-31T06:01:39.646Z,11.53
2018-08-31T06:04:07.174Z,12.43
2018-08-31T06:06:34.609Z,11.97
2018-08-31T06:09:02.894Z,11.60
2018-08-31T06:11:30.323Z,11.97
2018-08-31T06:13:57.764Z,11.43
2018-08-31T06:16:25.249Z,11.93
2018-08-31T06:19:40.195Z,11.80
2018-08-31T06:22:14.789Z,12.03
2018-08-31T06:24:48.161Z,12.07
2018-08-31T06:27:19.157Z,12.47
2018-08-31T06:29:49.405Z,11.37
2018-08-31T06:32:21.019Z,11.30
2018-08-31T06:34:53.567Z,12.50
2018-08-31T06:37:28.219Z,12.30
2018-08-31T06:39:57.837Z,12.97
2018-08-31T06:42:28.029Z,12.40
2018-08-31T06:45:00.219Z,12.63
2018-08-31T06:47:32.230Z,11.47
2018-08-31T06:50:04.812Z,12.47
2018-08-31T06:52:35.168Z,11.90
2018-08-31T06:55:05.255Z,12.80
2018-08-31T06:57:36.009Z,12.53
2018-08-31T07:00:06.392Z,13.07
2018-08-31T07:02:36.309Z,14.20
2018-08-31T07:05:10.063Z,13.97
2018-08-31T07:07:44.905Z,13.20
2018-08-31T07:10:15.471Z,13.47
2018-08-31T07:12:51.810Z,12.47
2018-08-31T07:15:24.264Z,13.17
2018-08-31T07:18:12.349Z,13.50
2018-08-31T07:20:43.342Z,13.73
2018-08-31T07:23:17.961Z,13.87
2018-08-31T07:25:54.084Z,13.30
2018-08-31T07:28:24.290Z,13.60
2018-08-31T07:30:59.156Z,13.47
2018-08-31T07:33:28.390Z,14.10
2018-08-31T07:36:09.016Z,13.00
2018-08-31T07:38:39.838Z,13.63
2018-08-31T07:41:15.875Z,14.67
2018-08-31T07:43:52.410Z,14.63
2018-08-31T07:49:03.399Z,15.20
2018-08-31T07:51:30.973Z,14.40
2018-08-31T07:53:58.478Z,13.67
2018-08-31T07:56:26.099Z,13.83
2018-08-31T07:58:53.618Z,13.63
2018-08-31T08:01:21.147Z,14.20
2018-08-31T08:03:48.697Z,13.13
2018-08-31T08:06:16.918Z,14.50
2018-08-31T08:08:44.391Z,13.73
2018-08-31T08:11:11.900Z,12.93
2018-08-31T08:13:39.677Z,13.27
2018-08-31T08:16:07.172Z,13.67
2018-08-31T08:18:35.782Z,12.97
2018-08-31T08:21:03.270Z,12.67
2018-08-31T08:23:30.817Z,12.23
2018-08-31T08:25:58.312Z,12.80
2018-08-31T08:28:26.791Z,12.50
2018-08-31T08:30:54.258Z,12.83
2018-08-31T08:33:21.904Z,13.80
2018-08-31T08:35:49.376Z,13.73
2018-08-31T08:38:16.804Z,13.17
2018-08-31T08:40:44.293Z,13.83
2018-08-31T08:43:11.782Z,14.23
2018-08-31T08:45:39.229Z,13.67
2018-08-31T08:48:06.978Z,11.87
2018-08-31T08:50:34.515Z,11.93
2018-08-31T08:53:02.054Z,11.77
2018-08-31T08:55:29.664Z,12.43
2018-08-31T08:57:57.328Z,11.83
2018-08-31T09:00:24.806Z,12.97
2018-08-31T09:02:52.302Z,13.23
2018-08-31T09:05:19.775Z,12.87
2018-08-31T09:07:47.372Z,12.67
2018-08-31T09:10:14.841Z,12.90
2018-08-31T09:12:44.802Z,13.23
2018-08-31T09:15:15.272Z,12.77
2018-08-31T09:17:44.510Z,12.73
2018-08-31T09:20:12.054Z,13.27
2018-08-31T09:22:39.494Z,13.13
2018-08-31T09:25:07.700Z,13.87
2018-08-31T09:27:35.238Z,13.03
2018-08-31T09:30:03.098Z,13.60
2018-08-31T09:32:32.481Z,14.40
2018-08-31T09:35:00.582Z,14.27
2018-08-31T09:37:28.037Z,14.60
2018-08-31T09:39:55.561Z,14.13
2018-08-31T09:42:23.041Z,13.23
2018-08-31T09:44:50.519Z,14.47
2018-08-31T09:47:17.963Z,14.80
2018-08-31T09:49:46.431Z,13.73
2018-08-31T09:52:15.774Z,13.60
2018-08-31T09:54:43.290Z,14.40
2018-08-31T09:57:11.062Z,14.93
2018-08-31T09:59:40.479Z,14.20
2018-08-31T10:02:15.471Z,13.90
2018-08-31T10:04:44.183Z,13.13
2018-08-31T10:07:11.670Z,12.90
2018-08-31T10:09:39.169Z,14.40
2018-08-31T10:12:06.777Z,13.77
2018-08-31T10:14:34.243Z,13.37
2018-08-31T10:17:01.775Z,13.83
2018-08-31T10:19:29.249Z,13.83
2018-08-31T10:21:56.717Z,13.17
2018-08-31T10:24:24.695Z,12.90
2018-08-31T10:26:53.059Z,13.00
2018-08-31T10:29:20.527Z,12.63
2018-08-31T10:31:47.982Z,13.60
2018-08-31T10:34:15.470Z,13.27
2018-08-31T10:36:42.962Z,12.73
2018-08-31T10:39:13.284Z,13.17
2018-08-31T10:41:41.202Z,12.87
2018-08-31T10:44:09.240Z,13.20
2018-08-31T10:46:36.783Z,12.87
2018-08-31T10:49:04.736Z,12.63
2018-08-31T10:51:32.502Z,12.83
2018-08-31T10:54:00.305Z,12.33
2018-08-31T10:56:28.380Z,11.70
2018-08-31T10:58:56.172Z,13.03
2018-08-31T11:01:23.929Z,11.87
2018-08-31T11:03:51.392Z,12.03
2018-08-31T11:06:18.889Z,11.63
2018-08-31T11:08:46.509Z,11.10
2018-08-31T11:11:13.988Z,11.37
2018-08-31T11:13:41.512Z,11.73
2018-08-31T11:16:09.004Z,12.20
2018-08-31T11:18:36.712Z,11.77
2018-08-31T11:21:04.142Z,11.60
2018-08-31T11:23:31.630Z,10.53
2018-08-31T11:25:59.324Z,11.47
2018-08-31T11:28:29.595Z,10.97
2018-08-31T11:30:57.048Z,9.80
2018-08-31T11:33:24.526Z,10.83
2018-08-31T11:35:52.008Z,9.97
2018-08-31T11:38:19.478Z,10.10
2018-08-31T11:40:47.212Z,9.67
2018-08-31T11:43:14.862Z,9.67
2018-08-31T11:45:42.444Z,9.63
2018-08-31T11:48:10.162Z,9.27
2018-08-31T11:50:37.644Z,9.70
2018-08-31T11:53:06.390Z,9.23
2018-08-31T11:55:33.872Z,9.07
2018-08-31T11:58:01.390Z,8.53
2018-08-31T12:00:29.044Z,8.27
2018-08-31T12:02:56.594Z,8.67
2018-08-31T12:05:24.692Z,8.20
2018-08-31T12:07:52.210Z,8.70
2018-08-31T12:10:26.526Z,8.43
2018-08-31T12:12:54.079Z,8.43
2018-08-31T12:15:21.584Z,8.20
2018-08-31T12:17:49.072Z,7.93
2018-08-31T12:20:16.674Z,8.40
2018-08-31T12:22:44.205Z,8.50
2018-08-31T12:25:11.771Z,9.03
2018-08-31T12:27:44.029Z,8.40
2018-08-31T12:30:11.963Z,8.10
2018-08-31T12:32:39.916Z,8.00
2018-08-31T12:35:07.578Z,8.30
2018-08-31T12:37:35.068Z,8.07
2018-08-31T12:40:02.629Z,7.67
2018-08-31T12:42:30.239Z,7.67
2018-08-31T12:44:57.783Z,7.90
2018-08-31T12:47:25.409Z,7.67
2018-08-31T12:49:53.020Z,7.80
2018-08-31T12:52:20.499Z,8.63
2018-08-31T12:54:47.938Z,8.60
2018-08-31T12:57:16.335Z,7.97
2018-08-31T12:59:49.593Z,8.27
2018-08-31T13:02:17.052Z,8.67
2018-08-31T13:04:44.558Z,8.30
2018-08-31T13:07:12.088Z,8.60
2018-08-31T13:09:39.578Z,8.83
2018-08-31T13:12:07.083Z,8.50
2018-08-31T13:14:34.535Z,9.40
2018-08-31T13:17:02.053Z,9.30
2018-08-31T13:19:29.581Z,9.23
2018-08-31T13:21:57.017Z,8.70
2018-08-31T13:24:25.351Z,8.30
2018-08-31T13:26:53.070Z,8.27
2018-08-31T13:29:21.294Z,8.57
2018-08-31T13:31:48.753Z,8.27
2018-08-31T13:34:16.269Z,9.00
2018-08-31T13:36:43.696Z,8.73
2018-08-31T13:39:11.193Z,8.33
2018-08-31T13:41:38.614Z,8.20
2018-08-31T13:44:06.513Z,7.77
2018-08-31T13:46:34.015Z,7.83
2018-08-31T13:49:01.511Z,8.27
2018-08-31T13:51:28.966Z,7.67
2018-08-31T13:53:56.433Z,8.03
2018-08-31T13:56:23.974Z,8.10
2018-08-31T13:58:51.502Z,8.00
2018-08-31T14:01:19.010Z,8.03
2018-08-31T14:03:46.540Z,8.30
2018-08-31T14:06:13.988Z,7.97
2018-08-31T14:08:41.471Z,8.47
2018-08-31T14:11:08.962Z,8.90
2018-08-31T14:13:36.501Z,9.00
2018-08-31T14:16:04.078Z,8.70
2018-08-31T14:18:31.583Z,7.90
2018-08-31T14:20:59.402Z,8.43
2018-08-31T14:23:26.902Z,7.53
2018-08-31T14:25:54.586Z,8.60
2018-08-31T14:28:22.107Z,8.67
2018-08-31T14:30:49.740Z,8.10
2018-08-31T14:33:17.230Z,8.00
2018-08-31T14:35:44.728Z,7.73
2018-08-31T14:38:12.336Z,7.97
2018-08-31T14:40:39.909Z,7.63
2018-08-31T14:43:07.433Z,8.20
2018-08-31T14:45:34.969Z,8.07
2018-08-31T14:48:02.636Z,8.67
2018-08-31T14:50:30.125Z,9.03
2018-08-31T14:52:58.583Z,8.13
2018-08-31T14:55:26.441Z,8.50
2018-08-31T14:57:53.954Z,8.83
2018-08-31T15:00:21.462Z,8.57
2018-08-31T15:02:49.024Z,8.93
2018-08-31T15:05:16.469Z,9.40
2018-08-31T15:07:43.929Z,9.30
2018-08-31T15:10:13.254Z,10.00
2018-08-31T15:12:41.376Z,9.60
2018-08-31T15:15:08.827Z,9.50
2018-08-31T15:17:36.326Z,9.50
2018-08-31T15:20:04.619Z,9.00
2018-08-31T15:22:32.152Z,9.30
2018-08-31T15:24:59.614Z,9.43
2018-08-31T15:27:27.166Z,9.17
2018-08-31T15:29:54.620Z,9.13
2018-08-31T15:32:22.162Z,8.73
2018-08-31T15:34:49.685Z,8.63
2018-08-31T15:37:17.201Z,8.97
2018-08-31T15:39:44.673Z,9.07
2018-08-31T15:42:12.317Z,9.33
2018-08-31T15:44:39.744Z,9.13
2018-08-31T15:47:07.255Z,8.87
2018-08-31T15:49:34.802Z,9.03
2018-08-31T15:52:02.367Z,8.60
2018-08-31T15:54:29.849Z,8.87
2018-08-31T15:56:57.327Z,8.73
2018-08-31T15:59:24.823Z,9.07
2018-08-31T16:01:52.347Z,8.67
2018-08-31T16:04:19.869Z,9.53
2018-08-31T16:06:47.389Z,9.20
2018-08-31T16:09:14.953Z,9.17
2018-08-31T16:11:42.351Z,9.00
2018-08-31T16:14:09.863Z,8.63
2018-08-31T16:16:37.312Z,9.47
2018-08-31T16:19:05.173Z,8.90
2018-08-31T16:21:32.542Z,9.03
2018-08-31T16:24:00.001Z,9.37
2018-08-31T16:26:27.492Z,9.23
2018-08-31T16:28:55.120Z,8.93
2018-08-31T16:31:22.788Z,9.30
2018-08-31T16:33:50.239Z,9.43
2018-08-31T16:36:17.769Z,9.43
2018-08-31T16:38:45.205Z,10.47
2018-08-31T16:41:12.705Z,10.10
2018-08-31T16:43:41.139Z,9.17
2018-08-31T16:46:08.675Z,9.40
2018-08-31T16:48:36.147Z,9.50
2018-08-31T16:51:03.909Z,9.80
2018-08-31T16:53:31.399Z,10.17
2018-08-31T16:55:58.881Z,9.97
2018-08-31T16:58:26.438Z,10.90
2018-08-31T17:00:53.892Z,10.37
2018-08-31T17:03:21.340Z,10.10
2018-08-31T17:05:48.829Z,10.20
2018-08-31T17:08:16.940Z,9.63
2018-08-31T17:10:44.484Z,10.37
2018-08-31T17:13:11.963Z,10.20
2018-08-31T17:15:39.576Z,10.60
2018-08-31T17:18:07.120Z,9.70
2018-08-31T17:20:34.581Z,10.37
2018-08-31T17:23:02.206Z,10.57
2018-08-31T17:25:29.732Z,10.67
2018-08-31T17:28:03.038Z,10.77
2018-08-31T17:30:30.499Z,10.43
2018-08-31T17:33:03.758Z,10.37
2018-08-31T17:35:36.788Z,11.60
2018-08-31T17:38:04.383Z,10.90
2018-08-31T17:40:31.880Z,11.03
2018-08-31T17:43:00.248Z,11.13
2018-08-31T17:45:27.952Z,10.80
2018-08-31T17:47:56.185Z,11.33
2018-08-31T17:50:23.706Z,10.87
2018-08-31T17:52:51.184Z,11.27
2018-08-31T17:55:18.958Z,11.77
2018-08-31T17:57:46.625Z,12.47
2018-08-31T18:00:14.180Z,12.40
2018-08-31T18:02:41.797Z,11.57
2018-08-31T18:05:09.472Z,12.57
2018-08-31T18:07:37.157Z,12.07
2018-08-31T18:10:05.767Z,12.17
2018-08-31T18:12:33.233Z,12.03
2018-08-31T18:15:00.707Z,11.83
2018-08-31T18:17:28.277Z,11.43
2018-08-31T18:19:55.686Z,12.43
2018-08-31T18:22:23.196Z,12.97
2018-08-31T18:24:50.706Z,11.63
2018-08-31T18:27:18.505Z,12.40
2018-08-31T18:29:46.279Z,11.73
2018-08-31T18:32:13.789Z,11.83
2018-08-31T18:34:41.413Z,11.57
2018-08-31T18:37:10.107Z,11.47
2018-08-31T18:39:38.237Z,11.23
2018-08-31T18:42:06.363Z,11.43
2018-08-31T18:44:33.903Z,11.00
2018-08-31T18:47:01.637Z,11.30
2018-08-31T18:49:29.243Z,11.77
2018-08-31T18:51:56.708Z,12.00
2018-08-31T18:54:24.111Z,11.97
2018-08-31T18:56:51.602Z,11.03
2018-08-31T18:59:19.143Z,10.97
2018-08-31T19:01:46.630Z,10.20
2018-08-31T19:04:14.113Z,10.73
2018-08-31T19:06:41.575Z,11.43
2018-08-31T19:09:09.083Z,12.43
2018-08-31T19:11:37.164Z,12.30
2018-08-31T19:14:04.868Z,12.07
2018-08-31T19:16:46.646Z,11.17
2018-08-31T19:19:14.350Z,11.53
2018-08-31T19:21:41.799Z,11.83
2018-08-31T19:24:09.266Z,12.73
2018-08-31T19:26:36.834Z,12.97
2018-08-31T19:29:05.001Z,12.57
2018-08-31T19:31:32.662Z,13.30
2018-08-31T19:34:00.086Z,12.43
2018-08-31T19:36:28.461Z,13.00
2018-08-31T19:38:55.961Z,12.87
2018-08-31T19:41:23.439Z,13.40
2018-08-31T19:43:51.189Z,13.03
2018-08-31T19:46:19.302Z,12.97
2018-08-31T19:48:46.962Z,13.50
2018-08-31T19:51:26.717Z,13.53
2018-08-31T19:53:54.243Z,12.73
2018-08-31T19:56:21.801Z,13.07
2018-08-31T19:58:50.098Z,12.40
2018-08-31T20:01:18.669Z,13.70
2018-08-31T20:03:48.717Z,13.33
2018-08-31T20:06:16.228Z,13.47
2018-08-31T20:08:43.693Z,12.60
2018-08-31T20:11:13.934Z,13.27
2018-08-31T20:13:41.491Z,14.13
2018-08-31T20:16:09.153Z,12.80
2018-08-31T20:18:36.672Z,13.87
2018-08-31T20:21:04.194Z,13.13
2018-08-31T20:23:32.162Z,13.93
2018-08-31T20:25:59.926Z,13.20
2018-08-31T20:28:27.438Z,12.83
2018-08-31T20:30:55.263Z,12.77
2018-08-31T20:33:22.869Z,13.73
2018-08-31T20:35:50.460Z,12.93
2018-08-31T20:38:17.933Z,13.00
2018-08-31T20:40:45.960Z,12.60
2018-08-31T20:43:13.845Z,12.77
2018-08-31T20:45:41.294Z,13.47
2018-08-31T20:48:08.870Z,12.40
2018-08-31T20:50:36.362Z,13.47
2018-08-31T20:53:04.064Z,12.60
2018-08-31T20:55:31.529Z,12.27
2018-08-31T20:57:59.116Z,12.57
2018-08-31T21:00:26.542Z,11.57
2018-08-31T21:02:54.101Z,12.73
2018-08-31T21:05:21.592Z,12.90
2018-08-31T21:07:49.115Z,12.50
2018-08-31T21:10:16.627Z,12.10
2018-08-31T21:12:44.225Z,12.03
2018-08-31T21:15:11.698Z,13.33
2018-08-31T21:17:39.223Z,12.67
2018-08-31T21:20:06.826Z,12.47
2018-08-31T21:22:34.346Z,13.33
2018-08-31T21:25:01.771Z,13.57
2018-08-31T21:27:29.273Z,14.13
2018-08-31T21:29:57.369Z,13.17
2018-08-31T21:32:24.891Z,13.20
2018-08-31T21:34:52.424Z,13.20
2018-08-31T21:37:19.939Z,12.40
2018-08-31T21:39:47.436Z,12.63
2018-08-31T21:42:15.391Z,13.37
2018-08-31T21:44:42.743Z,12.83
2018-08-31T21:47:10.206Z,13.37
2018-08-31T21:49:37.741Z,13.73
2018-08-31T21:52:05.263Z,13.53
2018-08-31T21:54:32.776Z,13.77
2018-08-31T21:57:00.274Z,14.00
2018-08-31T21:59:27.731Z,14.33
2018-08-31T22:01:55.685Z,13.13
2018-08-31T22:04:23.721Z,13.33
2018-08-31T22:06:51.604Z,12.40
2018-08-31T22:09:19.144Z,13.90
2018-08-31T22:11:46.726Z,13.27
2018-08-31T22:14:14.204Z,13.57
2018-08-31T22:16:41.698Z,13.50
2018-08-31T22:19:09.181Z,13.27
2018-08-31T22:21:36.698Z,13.07
2018-08-31T22:24:04.180Z,13.10
2018-08-31T22:26:31.640Z,13.20
2018-08-31T22:28:59.144Z,13.20
2018-08-31T22:31:26.646Z,13.40
2018-08-31T22:33:54.029Z,13.17
2018-08-31T22:36:21.683Z,12.67
2018-08-31T22:38:49.149Z,12.73
2018-08-31T22:41:16.595Z,13.27
2018-08-31T22:43:49.559Z,13.10
2018-08-31T22:46:18.472Z,12.70
2018-08-31T22:48:46.201Z,12.90
2018-08-31T22:51:13.710Z,12.70
2018-08-31T22:53:41.233Z,12.93
2018-08-31T22:56:08.691Z,12.57
2018-08-31T22:58:36.056Z,11.80
2018-08-31T23:01:03.521Z,12.53
2018-08-31T23:03:30.995Z,13.30
2018-08-31T23:05:58.564Z,12.50
2018-08-31T23:08:26.019Z,12.00
2018-08-31T23:10:53.528Z,12.43
2018-08-31T23:13:21.018Z,13.00
2018-08-31T23:15:48.507Z,12.47
2018-08-31T23:18:16.055Z,13.53
2018-08-31T23:20:43.551Z,12.70
2018-08-31T23:23:16.628Z,13.20
2018-08-31T23:25:48.180Z,13.23
2018-08-31T23:28:16.144Z,13.10
2018-08-31T23:30:44.200Z,12.63
2018-08-31T23:33:11.724Z,12.40
2018-08-31T23:35:39.284Z,12.83
2018-08-31T23:38:06.722Z,13.13
2018-08-31T23:40:34.323Z,12.77
2018-08-31T23:43:01.864Z,12.57
2018-08-31T23:45:29.536Z,12.87
2018-08-31T23:47:57.309Z,12.97
2018-08-31T23:50:24.853Z,12.40
2018-08-31T23:52:52.319Z,11.80
2018-08-31T23:55:19.731Z,12.73
2018-08-31T23:57:47.237Z,12.43
